createdAt,value
2018-12-05T00:03:51.137Z,2.00
2018-12-05T00:08:53.541Z,1.90
2018-12-05T00:13:55.954Z,1.90
2018-12-05T00:18:58.457Z,1.80
2018-12-05T00:24:00.861Z,1.80
2018-12-05T00:29:03.329Z,1.70
2018-12-05T00:34:05.935Z,1.70
2018-12-05T00:39:08.578Z,1.60
2018-12-05T00:44:11.229Z,1.60
2018-12-05T00:49:13.745Z,1.50
2018-12-05T00:54:16.240Z,1.50
2018-12-05T00:59:18.632Z,1.40
2018-12-05T01:04:21.633Z,1.40
2018-12-05T01:09:24.074Z,1.30
2018-12-05T01:14:26.630Z,1.30
2018-12-05T01:19:29.126Z,1.30
2018-12-05T01:24:31.634Z,1.30
2018-12-05T01:29:34.117Z,1.30
2018-12-05T01:34:36.593Z,1.20
2018-12-05T01:39:39.067Z,1.30
2018-12-05T01:44:41.486Z,1.20
2018-12-05T01:49:43.962Z,1.20
2018-12-05T01:54:46.365Z,1.30
2018-12-05T01:59:48.920Z,1.30
2018-12-05T02:04:51.411Z,1.20
2018-12-05T02:09:54.431Z,1.20
2018-12-05T02:14:56.906Z,1.20
2018-12-05T02:19:59.315Z,1.20
2018-12-05T02:25:01.858Z,1.20
2018-12-05T02:30:05.137Z,1.20
2018-12-05T02:35:07.643Z,1.20
2018-12-05T02:45:09.966Z,1.20
2018-12-05T02:50:12.454Z,1.20
2018-12-05T02:55:14.983Z,1.20
2018-12-05T03:00:17.535Z,1.10
2018-12-05T03:05:19.979Z,1.10
2018-12-05T03:10:22.450Z,1.20
2018-12-05T03:15:24.948Z,1.10
2018-12-05T03:20:27.454Z,1.10
2018-12-05T03:25:30.864Z,1.10
2018-12-05T03:30:33.363Z,1.20
2018-12-05T03:35:38.525Z,1.20
2018-12-05T03:40:41.127Z,1.20
2018-12-05T03:45:43.570Z,1.20
2018-12-05T03:50:46.301Z,1.20
2018-12-05T03:55:48.747Z,1.20
2018-12-05T04:00:51.226Z,1.20
2018-12-05T04:05:53.679Z,1.20
2018-12-05T04:10:56.210Z,1.20
2018-12-05T04:15:58.618Z,1.20
2018-12-05T04:21:01.138Z,1.20
2018-12-05T04:26:03.614Z,1.20
2018-12-05T04:31:06.103Z,1.20
2018-12-05T04:36:08.519Z,1.20
2018-12-05T04:41:11.094Z,1.20
2018-12-05T04:46:13.577Z,1.20
2018-12-05T04:51:16.603Z,1.20
2018-12-05T04:56:19.046Z,1.20
2018-12-05T05:01:21.494Z,1.20
2018-12-05T05:06:23.976Z,1.20
2018-12-05T05:11:26.465Z,1.20
2018-12-05T05:16:29.264Z,1.10
2018-12-05T05:21:31.722Z,1.10
2018-12-05T05:26:34.194Z,1.10
2018-12-05T05:31:36.698Z,1.10
2018-12-05T05:36:39.133Z,1.10
2018-12-05T05:41:41.554Z,1.10
2018-12-05T05:46:44.032Z,1.00
2018-12-05T05:51:46.679Z,1.00
2018-12-05T05:56:49.081Z,1.00
2018-12-05T06:01:51.574Z,0.90
2018-12-05T06:06:54.523Z,0.90
2018-12-05T06:11:56.970Z,0.80
2018-12-05T06:16:59.394Z,0.80
2018-12-05T06:22:01.868Z,0.80
2018-12-05T06:27:04.478Z,0.70
2018-12-05T06:32:06.894Z,0.70
2018-12-05T06:37:09.352Z,0.70
2018-12-05T06:42:11.770Z,0.70
2018-12-05T06:47:14.167Z,0.70
2018-12-05T06:52:16.575Z,0.80
2018-12-05T06:57:19.056Z,0.80
2018-12-05T07:02:21.547Z,0.80
2018-12-05T07:07:23.946Z,0.90
2018-12-05T07:12:26.383Z,0.80
2018-12-05T07:17:28.782Z,0.90
2018-12-05T07:22:32.021Z,0.90
2018-12-05T07:27:34.444Z,0.90
2018-12-05T07:32:36.942Z,1.00
2018-12-05T07:37:39.444Z,1.00
2018-12-05T07:42:43.480Z,1.00
2018-12-05T07:47:46.159Z,1.00
2018-12-05T07:52:48.672Z,1.10
2018-12-05T07:57:51.074Z,1.10
2018-12-05T08:02:53.474Z,1.10
2018-12-05T08:07:55.963Z,1.10
2018-12-05T08:12:58.362Z,1.10
2018-12-05T08:18:00.855Z,1.20
2018-12-05T08:23:03.352Z,1.20
2018-12-05T08:28:05.782Z,1.20
2018-12-05T08:33:08.351Z,1.30
2018-12-05T08:38:10.848Z,1.30
2018-12-05T08:43:13.350Z,1.30
2018-12-05T08:48:15.949Z,1.40
2018-12-05T08:53:18.424Z,1.40
2018-12-05T08:58:20.836Z,1.40
2018-12-05T09:03:23.243Z,1.50
2018-12-05T09:08:25.694Z,1.50
2018-12-05T09:13:28.206Z,1.50
2018-12-05T09:18:30.607Z,1.60
2018-12-05T09:23:33.018Z,1.60
2018-12-05T09:28:35.495Z,1.70
2018-12-05T09:33:37.898Z,1.70
2018-12-05T09:38:40.297Z,1.70
2018-12-05T09:43:42.771Z,1.80
2018-12-05T09:48:45.180Z,1.90
2018-12-05T09:53:47.589Z,1.90
2018-12-05T09:58:50.076Z,2.00
2018-12-05T10:03:52.470Z,2.00
2018-12-05T10:08:54.937Z,2.10
2018-12-05T10:13:57.338Z,2.20
2018-12-05T10:18:59.789Z,2.20
2018-12-05T10:24:02.199Z,2.30
2018-12-05T10:29:04.627Z,2.30
2018-12-05T10:34:07.071Z,2.40
2018-12-05T10:39:09.503Z,2.40
2018-12-05T10:44:12.013Z,2.50
2018-12-05T10:49:14.550Z,2.50
2018-12-05T10:54:16.993Z,2.60
2018-12-05T10:59:19.439Z,2.60
2018-12-05T11:10:06.058Z,2.70
2018-12-05T11:15:14.331Z,2.70
2018-12-05T11:25:56.983Z,2.80
2018-12-05T11:30:59.420Z,2.90
2018-12-05T11:36:01.872Z,2.90
2018-12-05T11:41:04.308Z,2.90
2018-12-05T11:46:06.811Z,3.00
2018-12-05T11:51:09.292Z,3.00
2018-12-05T11:56:11.763Z,3.10
2018-12-05T12:01:14.263Z,3.10
2018-12-05T12:06:16.671Z,3.10
2018-12-05T12:11:19.075Z,3.20
2018-12-05T12:16:21.534Z,3.10
2018-12-05T12:21:23.949Z,3.20
2018-12-05T12:26:32.921Z,3.20
2018-12-05T12:31:30.933Z,3.20
2018-12-05T12:36:33.343Z,3.30
2018-12-05T12:41:35.828Z,3.30
2018-12-05T12:46:38.234Z,3.30
2018-12-05T12:51:41.541Z,3.30
2018-12-05T12:56:43.998Z,3.30
2018-12-05T13:01:46.463Z,3.30
2018-12-05T13:06:48.981Z,3.30
2018-12-05T13:11:51.975Z,3.30
2018-12-05T13:16:54.460Z,3.30
2018-12-05T13:21:56.951Z,3.40
2018-12-05T13:26:59.428Z,3.40
2018-12-05T13:32:01.867Z,3.40
2018-12-05T13:37:04.395Z,3.40
2018-12-05T13:42:07.604Z,3.40
2018-12-05T13:47:10.487Z,3.40
2018-12-05T13:52:12.921Z,3.50
2018-12-05T13:57:15.398Z,3.50
2018-12-05T14:02:17.901Z,3.50
2018-12-05T14:07:20.387Z,3.50
2018-12-05T14:12:26.547Z,3.50
2018-12-05T14:17:28.954Z,3.50
2018-12-05T14:22:31.395Z,3.50
2018-12-05T14:27:33.795Z,3.50
2018-12-05T14:32:36.209Z,3.50
2018-12-05T14:37:38.645Z,3.50
2018-12-05T14:42:41.083Z,3.60
2018-12-05T14:47:43.496Z,3.50
2018-12-05T14:52:45.974Z,3.50
2018-12-05T14:57:48.455Z,3.50
2018-12-05T15:02:50.938Z,3.60
2018-12-05T15:07:53.378Z,3.50
2018-12-05T15:12:55.786Z,3.50
2018-12-05T15:17:58.259Z,3.50
2018-12-05T15:23:00.663Z,3.50
2018-12-05T15:28:03.103Z,3.50
2018-12-05T15:33:05.513Z,3.40
2018-12-05T15:38:07.990Z,3.40
2018-12-05T15:43:10.408Z,3.40
2018-12-05T15:48:12.914Z,3.40
2018-12-05T15:53:15.322Z,3.40
2018-12-05T15:58:17.838Z,3.40
2018-12-05T16:03:20.347Z,3.30
2018-12-05T16:08:22.774Z,3.30
2018-12-05T16:13:25.242Z,3.30
2018-12-05T16:18:27.644Z,3.30
2018-12-05T16:23:30.042Z,3.30
2018-12-05T16:28:32.695Z,3.30
2018-12-05T16:33:35.794Z,3.30
2018-12-05T16:38:38.303Z,3.30
2018-12-05T16:43:40.742Z,3.30
2018-12-05T16:48:43.192Z,3.20
2018-12-05T16:53:45.692Z,3.20
2018-12-05T16:58:48.271Z,3.20
2018-12-05T17:03:50.706Z,3.20
2018-12-05T17:08:53.180Z,3.20
2018-12-05T17:13:55.583Z,3.20
2018-12-05T17:18:58.034Z,3.20
2018-12-05T17:24:00.506Z,3.20
2018-12-05T17:29:03.065Z,3.20
2018-12-05T17:34:05.537Z,3.10
2018-12-05T17:39:08.265Z,3.10
2018-12-05T17:44:10.735Z,3.10
2018-12-05T17:49:13.177Z,3.10
2018-12-05T17:54:15.638Z,3.10
2018-12-05T17:59:18.051Z,3.10
2018-12-05T18:04:20.458Z,3.10
2018-12-05T18:09:22.876Z,3.10
2018-12-05T18:14:25.445Z,3.10
2018-12-05T18:19:27.958Z,3.10
2018-12-05T18:24:30.898Z,3.00
2018-12-05T18:29:33.762Z,3.00
2018-12-05T18:34:36.166Z,3.00
2018-12-05T18:39:40.372Z,2.90
2018-12-05T18:44:43.091Z,2.90
2018-12-05T18:49:45.558Z,2.90
2018-12-05T18:54:48.084Z,2.90
2018-12-05T18:59:50.637Z,2.90
2018-12-05T19:04:53.076Z,2.90
2018-12-05T19:09:55.520Z,2.90
2018-12-05T19:14:57.987Z,2.90
2018-12-05T19:20:00.426Z,2.80
2018-12-05T19:25:02.938Z,2.80
2018-12-05T19:30:07.219Z,2.80
2018-12-05T19:35:09.660Z,2.80
2018-12-05T19:40:12.139Z,2.80
2018-12-05T19:45:14.637Z,2.80
2018-12-05T19:50:17.088Z,2.80
2018-12-05T19:55:19.531Z,2.70
2018-12-05T20:00:21.974Z,2.70
2018-12-05T20:05:24.422Z,2.70
2018-12-05T20:10:26.947Z,2.70
2018-12-05T20:15:29.435Z,2.70
2018-12-05T20:20:31.921Z,2.60
2018-12-05T20:25:34.485Z,2.60
2018-12-05T20:30:36.986Z,2.60
2018-12-05T20:35:39.418Z,2.60
2018-12-05T20:40:41.986Z,2.50
2018-12-05T20:45:44.522Z,2.50
2018-12-05T20:50:47.032Z,2.50
2018-12-05T20:55:49.519Z,2.50
2018-12-05T21:00:52.016Z,2.50
2018-12-05T21:05:54.605Z,2.40
2018-12-05T21:10:57.124Z,2.40
2018-12-05T21:16:00.291Z,2.40
2018-12-05T21:21:02.743Z,2.40
2018-12-05T21:26:05.190Z,2.30
2018-12-05T21:31:07.627Z,2.30
2018-12-05T21:36:10.090Z,2.30
2018-12-05T21:41:12.567Z,2.30
2018-12-05T21:46:15.117Z,2.30
2018-12-05T21:51:17.573Z,2.30
2018-12-05T21:56:20.070Z,2.30
2018-12-05T22:01:22.601Z,2.30
2018-12-05T22:06:25.058Z,2.30
2018-12-05T22:11:27.514Z,2.30
2018-12-05T22:16:29.965Z,2.40
2018-12-05T22:21:32.414Z,2.30
2018-12-05T22:26:34.886Z,2.30
2018-12-05T22:31:37.360Z,2.30
2018-12-05T22:36:39.815Z,2.30
2018-12-05T22:41:42.254Z,2.40
2018-12-05T22:46:44.727Z,2.30
2018-12-05T22:51:47.186Z,2.40
2018-12-05T22:57:01.719Z,2.40
2018-12-05T23:02:04.272Z,2.40
2018-12-05T23:07:06.928Z,2.30
2018-12-05T23:12:09.432Z,2.40
2018-12-05T23:17:11.877Z,2.40
2018-12-05T23:22:14.320Z,2.40
2018-12-05T23:27:16.757Z,2.40
2018-12-05T23:32:19.192Z,2.40
2018-12-05T23:37:21.675Z,2.40
2018-12-05T23:42:24.103Z,2.40
2018-12-05T23:47:26.579Z,2.40
2018-12-05T23:52:28.991Z,2.40
2018-12-05T23:57:31.400Z,2.40
